LPPD Airport Information

Runway Information
Runway 12 Length 8192 ft width 148 ft
Elevation 259 ft Threshold 0 ft Heading 112
Runway 30 Length 8192 ft Width 148 ft
Elevation 187 ft Threshold 787 ft Heading 292
Airport Frequencies
Type APP Name APP Frequency 119.4 MHZ
Type TWR Name TWR Frequency 118.3 MHZ
Airport Navaids
Type NDB Name Ponta Delgada Frequency 371 KHZ
Type NDB Name Ponta Delgada Frequency 351 KHZ
Type VORTAC Name Sao Miguel Frequency 114500 KHZ
Airport Weather Information & NOTAM
ADDS - METARS form results

(0758 UTC 15 December 2018)
Data provider http://aviationweather.gov/metar/data/
 
METAR text: LPPD 150730Z 32004KT 270V360 9999 FEW018 15/08 Q1022
Conditions at: LPPD (PONTA DELGADA/NO, PT) observed 0730 UTC 15 December 2018
Temperature: 15.0°C (59°F)
Dewpoint: 8.0°C (46°F) [RH = 63%]
Pressure (altimeter): 30.18 inches Hg (1022.0 mb)
Winds: from the NW (320 degrees) at 5 MPH (4 knots; 2.1 m/s)
Visibility: 6 or more miles (10+ km)
Ceiling: at least 12,000 feet AGL
Clouds: few clouds at 1800 feet AGL
Weather: no significant weather observed at this time

METAR text: LPPD 150700Z 33005KT 9999 FEW018 14/09 Q1022
Conditions at: LPPD (PONTA DELGADA/NO, PT) observed 0700 UTC 15 December 2018
Temperature: 14.0°C (57°F)
Dewpoint: 9.0°C (48°F) [RH = 72%]
Pressure (altimeter): 30.18 inches Hg (1022.0 mb)
Winds: from the NNW (330 degrees) at 6 MPH (5 knots; 2.6 m/s)
Visibility: 6 or more miles (10+ km)
Ceiling: at least 12,000 feet AGL
Clouds: few clouds at 1800 feet AGL
Weather: no significant weather observed at this time

Forecast for: LPPD (PONTA DELGADA/NO, PT)
Text: TAF LPPD 150500Z 1506/1606 29010KT 9999 FEW018 SCT025
Forecast period: 0600 to 1200 UTC 15 December 2018
Forecast type: FROM: standard forecast or significant change
Winds: from the WNW (290 degrees) at 12 MPH (10 knots; 5.1 m/s)
Visibility: 6 or more miles 10+ km)
Ceiling: at least 12,000 feet AGL
Clouds: few clouds at 1800 feet AGL
scattered clouds at 2500 feet AGL
Weather: no significant weather forecast for this period
Text: BECMG 1512/1515 26015KT
Forecast period: 1200 UTC 15 December 2018 to 0600 UTC 16 December 2018
Forecast type: BECOMING: Conditions expected to become as follows by 1500 UTC 15 December 2018
Winds: from the W (260 degrees) at 17 MPH (15 knots; 7.7 m/s)
Visibility: 6 or more miles 10+ km)
Ceiling: at least 12,000 feet AGL
Clouds: few clouds at 1800 feet AGL
scattered clouds at 2500 feet AGL
Weather: no significant weather forecast for this period
Text: PROB30
Forecast period: 1200 UTC 15 December 2018 to 0200 UTC 16 December 2018
Forecast type: TEMPORARY: The following changes expected for less than half the time period
Winds: from the W (260 degrees) at 21 MPH (18 knots; 9.3 m/s)
gusting to 32 MPH (28 knots; 14.4 m/s)
Visibility: 5 miles (8 km)
Ceiling: 1500 feet AGL
Clouds: broken clouds at 1500 feet AGL
few clouds at 2500 feet AGL
Weather: SHRA  (rain showers)